sensor_id;sensor_type;location;lat;lon;timestamp;P1;durP1;ratioP1;P2;durP2;ratioP2
63005;SDS011;53704;52.532;6.426;2022-08-21T00:02:03;13.52;;;5.07;;
63005;SDS011;53704;52.532;6.426;2022-08-21T00:04:29;6.57;;;5.55;;
63005;SDS011;53704;52.532;6.426;2022-08-21T00:06:55;15.57;;;5.88;;
63005;SDS011;53704;52.532;6.426;2022-08-21T00:09:21;5.75;;;4.78;;
63005;SDS011;53704;52.532;6.426;2022-08-21T00:11:47;10.07;;;5.63;;
63005;SDS011;53704;52.532;6.426;2022-08-21T00:14:13;9.95;;;6.55;;
63005;SDS011;53704;52.532;6.426;2022-08-21T00:16:39;11.95;;;5.35;;
63005;SDS011;53704;52.532;6.426;2022-08-21T00:19:05;14.88;;;5.78;;
63005;SDS011;53704;52.532;6.426;2022-08-21T00:21:32;12.98;;;5.93;;
63005;SDS011;53704;52.532;6.426;2022-08-21T00:23:59;13.35;;;6.20;;
63005;SDS011;53704;52.532;6.426;2022-08-21T00:26:25;17.83;;;6.47;;
63005;SDS011;53704;52.532;6.426;2022-08-21T00:28:51;20.65;;;6.13;;
63005;SDS011;53704;52.532;6.426;2022-08-21T00:31:17;10.40;;;5.80;;
63005;SDS011;53704;52.532;6.426;2022-08-21T00:33:42;14.32;;;5.57;;
63005;SDS011;53704;52.532;6.426;2022-08-21T00:36:08;11.90;;;6.15;;
63005;SDS011;53704;52.532;6.426;2022-08-21T00:38:35;9.10;;;5.00;;
63005;SDS011;53704;52.532;6.426;2022-08-21T00:41:02;8.65;;;5.68;;
63005;SDS011;53704;52.532;6.426;2022-08-21T00:43:30;10.02;;;5.40;;
63005;SDS011;53704;52.532;6.426;2022-08-21T00:45:57;7.30;;;5.88;;
63005;SDS011;53704;52.532;6.426;2022-08-21T00:48:24;6.80;;;5.88;;
63005;SDS011;53704;52.532;6.426;2022-08-21T00:50:56;11.70;;;5.72;;
63005;SDS011;53704;52.532;6.426;2022-08-21T00:53:24;12.80;;;5.57;;
63005;SDS011;53704;52.532;6.426;2022-08-21T00:55:50;9.85;;;5.68;;
63005;SDS011;53704;52.532;6.426;2022-08-21T00:58:18;12.45;;;5.32;;
63005;SDS011;53704;52.532;6.426;2022-08-21T01:00:45;9.52;;;6.55;;
63005;SDS011;53704;52.532;6.426;2022-08-21T01:03:14;11.38;;;5.80;;
63005;SDS011;53704;52.532;6.426;2022-08-21T01:05:42;7.88;;;6.05;;
63005;SDS011;53704;52.532;6.426;2022-08-21T01:08:08;10.43;;;6.65;;
63005;SDS011;53704;52.532;6.426;2022-08-21T01:10:35;10.68;;;6.68;;
63005;SDS011;53704;52.532;6.426;2022-08-21T01:13:02;7.80;;;6.38;;
63005;SDS011;53704;52.532;6.426;2022-08-21T01:15:33;9.07;;;5.95;;
63005;SDS011;53704;52.532;6.426;2022-08-21T01:18:03;15.00;;;5.95;;
63005;SDS011;53704;52.532;6.426;2022-08-21T01:20:30;10.50;;;6.00;;
63005;SDS011;53704;52.532;6.426;2022-08-21T01:22:55;13.80;;;7.03;;
63005;SDS011;53704;52.532;6.426;2022-08-21T01:25:20;13.68;;;6.47;;
63005;SDS011;53704;52.532;6.426;2022-08-21T01:27:46;7.80;;;6.22;;
63005;SDS011;53704;52.532;6.426;2022-08-21T01:30:16;12.95;;;7.28;;
63005;SDS011;53704;52.532;6.426;2022-08-21T01:32:45;12.73;;;6.90;;
63005;SDS011;53704;52.532;6.426;2022-08-21T01:35:13;8.88;;;6.72;;
63005;SDS011;53704;52.532;6.426;2022-08-21T01:37:40;14.57;;;7.75;;
63005;SDS011;53704;52.532;6.426;2022-08-21T01:40:06;9.18;;;8.25;;
63005;SDS011;53704;52.532;6.426;2022-08-21T01:42:33;10.07;;;8.73;;
63005;SDS011;53704;52.532;6.426;2022-08-21T01:44:58;10.15;;;6.95;;
63005;SDS011;53704;52.532;6.426;2022-08-21T01:47:24;13.63;;;7.75;;
63005;SDS011;53704;52.532;6.426;2022-08-21T01:49:49;14.70;;;8.90;;
63005;SDS011;53704;52.532;6.426;2022-08-21T01:52:15;12.93;;;8.55;;
63005;SDS011;53704;52.532;6.426;2022-08-21T01:54:41;19.30;;;8.55;;
63005;SDS011;53704;52.532;6.426;2022-08-21T01:57:07;13.30;;;8.15;;
63005;SDS011;53704;52.532;6.426;2022-08-21T01:59:33;13.73;;;8.85;;
63005;SDS011;53704;52.532;6.426;2022-08-21T02:01:58;15.50;;;8.55;;
63005;SDS011;53704;52.532;6.426;2022-08-21T02:04:24;11.88;;;7.47;;
63005;SDS011;53704;52.532;6.426;2022-08-21T02:06:49;10.02;;;7.65;;
63005;SDS011;53704;52.532;6.426;2022-08-21T02:09:15;11.90;;;7.60;;
63005;SDS011;53704;52.532;6.426;2022-08-21T02:11:41;10.52;;;8.43;;
63005;SDS011;53704;52.532;6.426;2022-08-21T02:14:08;13.55;;;8.60;;
63005;SDS011;53704;52.532;6.426;2022-08-21T02:16:34;12.07;;;8.85;;
63005;SDS011;53704;52.532;6.426;2022-08-21T02:19:00;10.73;;;8.35;;
63005;SDS011;53704;52.532;6.426;2022-08-21T02:21:25;12.75;;;8.45;;
63005;SDS011;53704;52.532;6.426;2022-08-21T02:23:51;11.60;;;8.68;;
63005;SDS011;53704;52.532;6.426;2022-08-21T02:26:16;15.00;;;9.02;;
63005;SDS011;53704;52.532;6.426;2022-08-21T02:28:42;11.40;;;8.38;;
63005;SDS011;53704;52.532;6.426;2022-08-21T02:31:08;14.15;;;6.80;;
63005;SDS011;53704;52.532;6.426;2022-08-21T02:33:33;10.38;;;7.10;;
63005;SDS011;53704;52.532;6.426;2022-08-21T02:35:59;15.30;;;8.20;;
63005;SDS011;53704;52.532;6.426;2022-08-21T02:38:27;13.13;;;8.02;;
63005;SDS011;53704;52.532;6.426;2022-08-21T02:40:55;11.10;;;8.00;;
63005;SDS011;53704;52.532;6.426;2022-08-21T02:43:22;12.43;;;8.57;;
63005;SDS011;53704;52.532;6.426;2022-08-21T02:45:49;18.48;;;8.32;;
63005;SDS011;53704;52.532;6.426;2022-08-21T02:48:18;11.88;;;8.23;;
63005;SDS011;53704;52.532;6.426;2022-08-21T02:50:51;15.25;;;8.23;;
63005;SDS011;53704;52.532;6.426;2022-08-21T02:53:22;18.80;;;8.32;;
63005;SDS011;53704;52.532;6.426;2022-08-21T02:55:49;12.07;;;7.63;;
63005;SDS011;53704;52.532;6.426;2022-08-21T02:58:16;13.43;;;7.80;;
63005;SDS011;53704;52.532;6.426;2022-08-21T03:00:43;10.30;;;7.68;;
63005;SDS011;53704;52.532;6.426;2022-08-21T03:03:10;15.75;;;8.85;;
63005;SDS011;53704;52.532;6.426;2022-08-21T03:05:36;9.95;;;8.55;;
63005;SDS011;53704;52.532;6.426;2022-08-21T03:08:03;14.15;;;8.88;;
63005;SDS011;53704;52.532;6.426;2022-08-21T03:10:34;16.23;;;8.55;;
63005;SDS011;53704;52.532;6.426;2022-08-21T03:13:00;12.65;;;7.88;;
63005;SDS011;53704;52.532;6.426;2022-08-21T03:15:28;14.82;;;7.75;;
63005;SDS011;53704;52.532;6.426;2022-08-21T03:17:54;18.52;;;8.43;;
63005;SDS011;53704;52.532;6.426;2022-08-21T03:20:21;16.13;;;8.50;;
63005;SDS011;53704;52.532;6.426;2022-08-21T03:22:49;14.82;;;7.82;;
63005;SDS011;53704;52.532;6.426;2022-08-21T03:25:15;12.52;;;7.50;;
63005;SDS011;53704;52.532;6.426;2022-08-21T03:27:42;11.18;;;8.52;;
63005;SDS011;53704;52.532;6.426;2022-08-21T03:30:07;10.38;;;8.25;;
63005;SDS011;53704;52.532;6.426;2022-08-21T03:32:34;8.30;;;7.53;;
63005;SDS011;53704;52.532;6.426;2022-08-21T03:35:00;7.63;;;7.00;;
63005;SDS011;53704;52.532;6.426;2022-08-21T03:37:26;9.38;;;7.68;;
63005;SDS011;53704;52.532;6.426;2022-08-21T03:39:52;9.95;;;7.72;;
63005;SDS011;53704;52.532;6.426;2022-08-21T03:42:18;12.40;;;8.70;;
63005;SDS011;53704;52.532;6.426;2022-08-21T03:44:44;10.45;;;7.15;;
63005;SDS011;53704;52.532;6.426;2022-08-21T03:47:09;17.73;;;8.20;;
63005;SDS011;53704;52.532;6.426;2022-08-21T03:49:35;12.27;;;8.90;;
63005;SDS011;53704;52.532;6.426;2022-08-21T03:52:00;11.52;;;7.38;;
63005;SDS011;53704;52.532;6.426;2022-08-21T03:54:26;10.50;;;7.97;;
63005;SDS011;53704;52.532;6.426;2022-08-21T03:56:52;14.50;;;7.93;;
63005;SDS011;53704;52.532;6.426;2022-08-21T03:59:18;12.52;;;7.95;;
63005;SDS011;53704;52.532;6.426;2022-08-21T04:01:57;13.32;;;7.93;;
63005;SDS011;53704;52.532;6.426;2022-08-21T04:04:24;10.07;;;7.15;;
63005;SDS011;53704;52.532;6.426;2022-08-21T04:06:51;11.60;;;8.35;;
63005;SDS011;53704;52.532;6.426;2022-08-21T04:09:17;13.93;;;8.25;;
63005;SDS011;53704;52.532;6.426;2022-08-21T04:11:43;10.35;;;7.57;;
63005;SDS011;53704;52.532;6.426;2022-08-21T04:14:10;11.50;;;8.98;;
63005;SDS011;53704;52.532;6.426;2022-08-21T04:16:35;15.07;;;9.25;;
63005;SDS011;53704;52.532;6.426;2022-08-21T04:19:01;15.20;;;7.97;;
63005;SDS011;53704;52.532;6.426;2022-08-21T04:21:26;10.55;;;8.27;;
63005;SDS011;53704;52.532;6.426;2022-08-21T04:23:53;12.20;;;7.88;;
63005;SDS011;53704;52.532;6.426;2022-08-21T04:26:19;11.38;;;8.07;;
63005;SDS011;53704;52.532;6.426;2022-08-21T04:28:45;16.92;;;8.32;;
63005;SDS011;53704;52.532;6.426;2022-08-21T04:31:10;10.52;;;8.07;;
63005;SDS011;53704;52.532;6.426;2022-08-21T04:33:36;11.68;;;8.45;;
63005;SDS011;53704;52.532;6.426;2022-08-21T04:36:01;12.30;;;7.80;;
63005;SDS011;53704;52.532;6.426;2022-08-21T04:38:27;17.33;;;7.97;;
63005;SDS011;53704;52.532;6.426;2022-08-21T04:40:53;9.50;;;7.10;;
63005;SDS011;53704;52.532;6.426;2022-08-21T04:43:19;12.15;;;8.25;;
63005;SDS011;53704;52.532;6.426;2022-08-21T04:45:47;12.93;;;7.57;;
63005;SDS011;53704;52.532;6.426;2022-08-21T04:48:15;11.82;;;8.30;;
63005;SDS011;53704;52.532;6.426;2022-08-21T04:53:35;13.80;;;7.05;;
63005;SDS011;53704;52.532;6.426;2022-08-21T04:56:08;9.82;;;7.00;;
63005;SDS011;53704;52.532;6.426;2022-08-21T04:58:36;14.32;;;8.07;;
63005;SDS011;53704;52.532;6.426;2022-08-21T05:01:04;11.88;;;7.88;;
63005;SDS011;53704;52.532;6.426;2022-08-21T05:03:32;8.55;;;7.13;;
63005;SDS011;53704;52.532;6.426;2022-08-21T05:05:58;12.38;;;7.60;;
63005;SDS011;53704;52.532;6.426;2022-08-21T05:08:25;11.02;;;6.45;;
63005;SDS011;53704;52.532;6.426;2022-08-21T05:10:53;7.55;;;6.75;;
63005;SDS011;53704;52.532;6.426;2022-08-21T05:13:19;12.65;;;7.28;;
63005;SDS011;53704;52.532;6.426;2022-08-21T05:15:45;8.20;;;7.05;;
63005;SDS011;53704;52.532;6.426;2022-08-21T05:18:11;8.25;;;7.00;;
63005;SDS011;53704;52.532;6.426;2022-08-21T05:20:37;10.55;;;6.78;;
63005;SDS011;53704;52.532;6.426;2022-08-21T05:23:10;11.88;;;7.25;;
63005;SDS011;53704;52.532;6.426;2022-08-21T05:25:37;11.33;;;7.23;;
63005;SDS011;53704;52.532;6.426;2022-08-21T05:28:02;10.80;;;7.03;;
63005;SDS011;53704;52.532;6.426;2022-08-21T05:30:29;10.55;;;7.15;;
63005;SDS011;53704;52.532;6.426;2022-08-21T05:32:57;13.30;;;7.07;;
63005;SDS011;53704;52.532;6.426;2022-08-21T05:35:24;8.90;;;6.65;;
63005;SDS011;53704;52.532;6.426;2022-08-21T05:37:50;12.52;;;7.10;;
63005;SDS011;53704;52.532;6.426;2022-08-21T05:40:16;13.50;;;6.43;;
63005;SDS011;53704;52.532;6.426;2022-08-21T05:42:42;9.05;;;6.50;;
63005;SDS011;53704;52.532;6.426;2022-08-21T05:45:08;19.75;;;7.25;;
63005;SDS011;53704;52.532;6.426;2022-08-21T05:47:33;15.40;;;7.38;;
63005;SDS011;53704;52.532;6.426;2022-08-21T05:49:59;22.30;;;7.60;;
63005;SDS011;53704;52.532;6.426;2022-08-21T05:52:24;12.25;;;7.03;;
63005;SDS011;53704;52.532;6.426;2022-08-21T05:54:50;12.77;;;7.30;;
63005;SDS011;53704;52.532;6.426;2022-08-21T05:57:15;10.73;;;7.10;;
63005;SDS011;53704;52.532;6.426;2022-08-21T05:59:41;13.93;;;7.40;;
63005;SDS011;53704;52.532;6.426;2022-08-21T06:02:07;12.05;;;6.60;;
63005;SDS011;53704;52.532;6.426;2022-08-21T06:04:39;7.55;;;6.15;;
63005;SDS011;53704;52.532;6.426;2022-08-21T06:07:05;6.63;;;6.07;;
63005;SDS011;53704;52.532;6.426;2022-08-21T06:09:32;14.27;;;6.32;;
63005;SDS011;53704;52.532;6.426;2022-08-21T06:11:57;8.55;;;5.65;;
63005;SDS011;53704;52.532;6.426;2022-08-21T06:14:23;14.32;;;7.32;;
63005;SDS011;53704;52.532;6.426;2022-08-21T06:16:48;10.23;;;6.40;;
63005;SDS011;53704;52.532;6.426;2022-08-21T06:19:14;12.40;;;6.78;;
63005;SDS011;53704;52.532;6.426;2022-08-21T06:21:39;19.90;;;6.95;;
63005;SDS011;53704;52.532;6.426;2022-08-21T06:24:05;13.35;;;6.43;;
63005;SDS011;53704;52.532;6.426;2022-08-21T06:26:32;16.85;;;6.53;;
63005;SDS011;53704;52.532;6.426;2022-08-21T06:28:57;13.45;;;6.03;;
63005;SDS011;53704;52.532;6.426;2022-08-21T06:31:24;16.67;;;6.20;;
63005;SDS011;53704;52.532;6.426;2022-08-21T06:33:51;14.02;;;6.80;;
63005;SDS011;53704;52.532;6.426;2022-08-21T06:36:17;9.82;;;5.00;;
63005;SDS011;53704;52.532;6.426;2022-08-21T06:38:44;12.85;;;6.15;;
63005;SDS011;53704;52.532;6.426;2022-08-21T06:41:10;15.80;;;6.28;;
63005;SDS011;53704;52.532;6.426;2022-08-21T06:43:35;11.25;;;6.30;;
63005;SDS011;53704;52.532;6.426;2022-08-21T06:46:02;11.93;;;5.82;;
63005;SDS011;53704;52.532;6.426;2022-08-21T06:48:27;10.95;;;5.70;;
63005;SDS011;53704;52.532;6.426;2022-08-21T06:50:54;14.63;;;5.47;;
63005;SDS011;53704;52.532;6.426;2022-08-21T06:53:21;13.00;;;5.90;;
63005;SDS011;53704;52.532;6.426;2022-08-21T06:55:47;15.05;;;5.22;;
63005;SDS011;53704;52.532;6.426;2022-08-21T06:58:13;17.75;;;5.80;;
63005;SDS011;53704;52.532;6.426;2022-08-21T07:00:40;12.48;;;5.70;;
63005;SDS011;53704;52.532;6.426;2022-08-21T07:03:15;11.25;;;5.78;;
63005;SDS011;53704;52.532;6.426;2022-08-21T07:05:42;14.30;;;5.30;;
63005;SDS011;53704;52.532;6.426;2022-08-21T07:08:08;16.67;;;6.60;;
63005;SDS011;53704;52.532;6.426;2022-08-21T07:10:33;10.90;;;5.60;;
63005;SDS011;53704;52.532;6.426;2022-08-21T07:12:58;14.25;;;6.07;;
63005;SDS011;53704;52.532;6.426;2022-08-21T07:15:24;12.45;;;5.38;;
63005;SDS011;53704;52.532;6.426;2022-08-21T07:17:49;14.50;;;5.75;;
63005;SDS011;53704;52.532;6.426;2022-08-21T07:20:15;15.27;;;6.40;;
63005;SDS011;53704;52.532;6.426;2022-08-21T07:22:40;17.80;;;6.07;;
63005;SDS011;53704;52.532;6.426;2022-08-21T07:25:06;15.43;;;5.55;;
63005;SDS011;53704;52.532;6.426;2022-08-21T07:27:32;14.63;;;5.28;;
63005;SDS011;53704;52.532;6.426;2022-08-21T07:29:58;12.88;;;5.10;;
63005;SDS011;53704;52.532;6.426;2022-08-21T07:32:24;10.40;;;4.93;;
63005;SDS011;53704;52.532;6.426;2022-08-21T07:34:50;31.52;;;5.55;;
63005;SDS011;53704;52.532;6.426;2022-08-21T07:37:15;11.40;;;4.60;;
63005;SDS011;53704;52.532;6.426;2022-08-21T07:39:41;17.30;;;5.22;;
63005;SDS011;53704;52.532;6.426;2022-08-21T07:42:06;11.93;;;4.43;;
63005;SDS011;53704;52.532;6.426;2022-08-21T07:44:32;17.65;;;4.93;;
63005;SDS011;53704;52.532;6.426;2022-08-21T07:46:59;13.32;;;5.00;;
63005;SDS011;53704;52.532;6.426;2022-08-21T07:49:25;19.27;;;5.15;;
63005;SDS011;53704;52.532;6.426;2022-08-21T07:51:51;9.60;;;4.28;;
63005;SDS011;53704;52.532;6.426;2022-08-21T07:54:16;12.15;;;4.28;;
63005;SDS011;53704;52.532;6.426;2022-08-21T07:56:42;15.65;;;4.57;;
63005;SDS011;53704;52.532;6.426;2022-08-21T07:59:07;11.70;;;4.03;;
63005;SDS011;53704;52.532;6.426;2022-08-21T08:01:33;6.68;;;3.70;;
63005;SDS011;53704;52.532;6.426;2022-08-21T08:03:58;15.75;;;4.60;;
63005;SDS011;53704;52.532;6.426;2022-08-21T08:06:24;10.98;;;3.97;;
63005;SDS011;53704;52.532;6.426;2022-08-21T08:08:51;15.85;;;4.82;;
63005;SDS011;53704;52.532;6.426;2022-08-21T08:11:17;8.15;;;3.35;;
63005;SDS011;53704;52.532;6.426;2022-08-21T08:13:43;11.43;;;4.45;;
63005;SDS011;53704;52.532;6.426;2022-08-21T08:16:10;16.70;;;4.35;;
63005;SDS011;53704;52.532;6.426;2022-08-21T08:18:36;16.30;;;3.42;;
63005;SDS011;53704;52.532;6.426;2022-08-21T08:21:02;13.57;;;3.50;;
63005;SDS011;53704;52.532;6.426;2022-08-21T08:23:28;15.95;;;4.03;;
63005;SDS011;53704;52.532;6.426;2022-08-21T08:25:55;12.68;;;3.92;;
63005;SDS011;53704;52.532;6.426;2022-08-21T08:28:21;6.93;;;3.42;;
63005;SDS011;53704;52.532;6.426;2022-08-21T08:30:46;13.95;;;4.35;;
63005;SDS011;53704;52.532;6.426;2022-08-21T08:33:12;10.13;;;3.60;;
63005;SDS011;53704;52.532;6.426;2022-08-21T08:35:39;10.98;;;3.15;;
63005;SDS011;53704;52.532;6.426;2022-08-21T08:38:06;20.67;;;4.57;;
63005;SDS011;53704;52.532;6.426;2022-08-21T08:40:39;10.15;;;3.85;;
63005;SDS011;53704;52.532;6.426;2022-08-21T08:43:11;16.80;;;4.65;;
63005;SDS011;53704;52.532;6.426;2022-08-21T08:45:39;11.48;;;4.80;;
63005;SDS011;53704;52.532;6.426;2022-08-21T08:48:08;10.55;;;3.60;;
63005;SDS011;53704;52.532;6.426;2022-08-21T08:50:44;14.93;;;3.78;;
63005;SDS011;53704;52.532;6.426;2022-08-21T08:53:23;10.93;;;3.90;;
63005;SDS011;53704;52.532;6.426;2022-08-21T08:55:54;15.80;;;3.90;;
63005;SDS011;53704;52.532;6.426;2022-08-21T08:58:27;10.18;;;3.67;;
63005;SDS011;53704;52.532;6.426;2022-08-21T09:00:55;14.93;;;3.65;;
63005;SDS011;53704;52.532;6.426;2022-08-21T09:03:24;11.32;;;3.33;;
63005;SDS011;53704;52.532;6.426;2022-08-21T09:06:03;10.27;;;3.38;;
63005;SDS011;53704;52.532;6.426;2022-08-21T09:08:43;5.25;;;2.60;;
63005;SDS011;53704;52.532;6.426;2022-08-21T09:11:22;11.35;;;3.45;;
63005;SDS011;53704;52.532;6.426;2022-08-21T09:14:11;10.30;;;3.00;;
63005;SDS011;53704;52.532;6.426;2022-08-21T09:16:47;10.35;;;3.30;;
63005;SDS011;53704;52.532;6.426;2022-08-21T09:19:28;15.02;;;3.30;;
63005;SDS011;53704;52.532;6.426;2022-08-21T09:22:10;10.23;;;2.65;;
63005;SDS011;53704;52.532;6.426;2022-08-21T09:27:40;11.90;;;2.40;;
63005;SDS011;53704;52.532;6.426;2022-08-21T09:30:07;10.27;;;3.05;;
63005;SDS011;53704;52.532;6.426;2022-08-21T09:32:35;9.15;;;2.50;;
63005;SDS011;53704;52.532;6.426;2022-08-21T09:37:33;10.35;;;2.83;;
63005;SDS011;53704;52.532;6.426;2022-08-21T09:40:20;9.35;;;2.65;;
63005;SDS011;53704;52.532;6.426;2022-08-21T09:42:54;6.55;;;2.05;;
63005;SDS011;53704;52.532;6.426;2022-08-21T09:45:21;6.07;;;2.15;;
63005;SDS011;53704;52.532;6.426;2022-08-21T09:47:48;8.38;;;2.50;;
63005;SDS011;53704;52.532;6.426;2022-08-21T09:50:15;9.65;;;2.00;;
63005;SDS011;53704;52.532;6.426;2022-08-21T09:52:43;10.10;;;2.30;;
63005;SDS011;53704;52.532;6.426;2022-08-21T09:55:15;9.88;;;2.17;;
63005;SDS011;53704;52.532;6.426;2022-08-21T09:58:04;9.98;;;1.90;;
63005;SDS011;53704;52.532;6.426;2022-08-21T10:00:32;7.93;;;2.40;;
63005;SDS011;53704;52.532;6.426;2022-08-21T10:03:09;7.18;;;2.17;;
63005;SDS011;53704;52.532;6.426;2022-08-21T10:05:39;11.50;;;2.33;;
63005;SDS011;53704;52.532;6.426;2022-08-21T10:08:21;11.68;;;2.20;;
63005;SDS011;53704;52.532;6.426;2022-08-21T10:10:53;6.78;;;2.40;;
63005;SDS011;53704;52.532;6.426;2022-08-21T10:18:47;4.43;;;2.15;;
63005;SDS011;53704;52.532;6.426;2022-08-21T10:24:30;13.73;;;3.03;;
63005;SDS011;53704;52.532;6.426;2022-08-21T10:29:40;7.85;;;2.05;;
63005;SDS011;53704;52.532;6.426;2022-08-21T10:32:57;7.43;;;2.28;;
63005;SDS011;53704;52.532;6.426;2022-08-21T10:35:24;4.63;;;2.10;;
63005;SDS011;53704;52.532;6.426;2022-08-21T10:40:34;8.57;;;2.03;;
63005;SDS011;53704;52.532;6.426;2022-08-21T10:43:16;5.60;;;2.20;;
63005;SDS011;53704;52.532;6.426;2022-08-21T10:46:03;6.93;;;1.98;;
63005;SDS011;53704;52.532;6.426;2022-08-21T10:48:42;6.82;;;2.38;;
63005;SDS011;53704;52.532;6.426;2022-08-21T10:56:31;5.40;;;2.00;;
63005;SDS011;53704;52.532;6.426;2022-08-21T11:04:54;5.45;;;2.25;;
63005;SDS011;53704;52.532;6.426;2022-08-21T11:07:32;10.27;;;2.63;;
63005;SDS011;53704;52.532;6.426;2022-08-21T11:10:39;6.43;;;2.13;;
63005;SDS011;53704;52.532;6.426;2022-08-21T11:13:16;7.32;;;2.03;;
63005;SDS011;53704;52.532;6.426;2022-08-21T11:18:29;5.00;;;2.10;;
63005;SDS011;53704;52.532;6.426;2022-08-21T11:21:06;16.85;;;2.88;;
63005;SDS011;53704;52.532;6.426;2022-08-21T11:23:41;3.75;;;1.95;;
63005;SDS011;53704;52.532;6.426;2022-08-21T11:26:13;15.32;;;2.63;;
63005;SDS011;53704;52.532;6.426;2022-08-21T11:28:46;12.13;;;2.95;;
63005;SDS011;53704;52.532;6.426;2022-08-21T11:31:22;3.78;;;1.95;;
63005;SDS011;53704;52.532;6.426;2022-08-21T11:36:56;4.95;;;2.60;;
63005;SDS011;53704;52.532;6.426;2022-08-21T11:42:33;8.90;;;2.72;;
63005;SDS011;53704;52.532;6.426;2022-08-21T11:45:22;13.75;;;2.42;;
63005;SDS011;53704;52.532;6.426;2022-08-21T11:48:28;5.55;;;2.05;;
63005;SDS011;53704;52.532;6.426;2022-08-21T11:50:55;14.50;;;2.95;;
63005;SDS011;53704;52.532;6.426;2022-08-21T11:56:07;3.90;;;2.00;;
63005;SDS011;53704;52.532;6.426;2022-08-21T12:01:06;7.85;;;2.67;;
63005;SDS011;53704;52.532;6.426;2022-08-21T12:03:35;9.48;;;2.40;;
63005;SDS011;53704;52.532;6.426;2022-08-21T12:06:06;7.78;;;2.17;;
63005;SDS011;53704;52.532;6.426;2022-08-21T12:08:35;7.90;;;1.98;;
63005;SDS011;53704;52.532;6.426;2022-08-21T12:16:28;6.95;;;2.13;;
63005;SDS011;53704;52.532;6.426;2022-08-21T12:19:13;8.85;;;2.85;;
63005;SDS011;53704;52.532;6.426;2022-08-21T12:21:58;6.50;;;2.20;;
63005;SDS011;53704;52.532;6.426;2022-08-21T12:27:29;7.40;;;2.38;;
63005;SDS011;53704;52.532;6.426;2022-08-21T12:30:06;4.90;;;1.90;;
63005;SDS011;53704;52.532;6.426;2022-08-21T12:32:54;9.93;;;2.65;;
63005;SDS011;53704;52.532;6.426;2022-08-21T12:35:27;10.30;;;2.42;;
63005;SDS011;53704;52.532;6.426;2022-08-21T12:38:09;7.18;;;2.38;;
63005;SDS011;53704;52.532;6.426;2022-08-21T12:40:45;9.85;;;2.75;;
63005;SDS011;53704;52.532;6.426;2022-08-21T12:43:24;7.25;;;2.17;;
63005;SDS011;53704;52.532;6.426;2022-08-21T12:45:55;4.32;;;1.77;;
63005;SDS011;53704;52.532;6.426;2022-08-21T12:48:25;8.20;;;2.40;;
63005;SDS011;53704;52.532;6.426;2022-08-21T12:53:51;8.57;;;2.38;;
63005;SDS011;53704;52.532;6.426;2022-08-21T12:56:20;12.43;;;2.50;;
63005;SDS011;53704;52.532;6.426;2022-08-21T12:58:51;8.77;;;2.60;;
63005;SDS011;53704;52.532;6.426;2022-08-21T13:01:33;8.02;;;2.75;;
63005;SDS011;53704;52.532;6.426;2022-08-21T13:04:02;3.63;;;1.92;;
63005;SDS011;53704;52.532;6.426;2022-08-21T13:06:36;8.90;;;2.20;;
63005;SDS011;53704;52.532;6.426;2022-08-21T13:09:04;7.43;;;2.28;;
63005;SDS011;53704;52.532;6.426;2022-08-21T13:11:31;9.48;;;2.83;;
63005;SDS011;53704;52.532;6.426;2022-08-21T13:13:58;7.93;;;2.45;;
63005;SDS011;53704;52.532;6.426;2022-08-21T13:16:27;10.88;;;2.67;;
63005;SDS011;53704;52.532;6.426;2022-08-21T13:19:04;10.35;;;3.13;;
63005;SDS011;53704;52.532;6.426;2022-08-21T13:21:41;8.00;;;2.72;;
63005;SDS011;53704;52.532;6.426;2022-08-21T13:26:48;12.18;;;2.38;;
63005;SDS011;53704;52.532;6.426;2022-08-21T13:29:16;5.40;;;2.10;;
63005;SDS011;53704;52.532;6.426;2022-08-21T13:31:52;9.88;;;2.35;;
63005;SDS011;53704;52.532;6.426;2022-08-21T13:34:24;8.07;;;2.30;;
63005;SDS011;53704;52.532;6.426;2022-08-21T13:36:57;4.70;;;2.40;;
63005;SDS011;53704;52.532;6.426;2022-08-21T13:39:25;4.47;;;1.80;;
63005;SDS011;53704;52.532;6.426;2022-08-21T13:41:54;6.93;;;2.15;;
63005;SDS011;53704;52.532;6.426;2022-08-21T13:47:00;7.05;;;2.33;;
63005;SDS011;53704;52.532;6.426;2022-08-21T13:49:35;8.30;;;2.08;;
63005;SDS011;53704;52.532;6.426;2022-08-21T13:52:04;6.03;;;2.20;;
63005;SDS011;53704;52.532;6.426;2022-08-21T13:54:39;8.88;;;2.53;;
63005;SDS011;53704;52.532;6.426;2022-08-21T13:57:19;10.65;;;2.42;;
63005;SDS011;53704;52.532;6.426;2022-08-21T13:59:51;14.23;;;3.25;;
63005;SDS011;53704;52.532;6.426;2022-08-21T14:02:20;10.93;;;3.60;;
63005;SDS011;53704;52.532;6.426;2022-08-21T14:04:54;9.23;;;3.05;;
63005;SDS011;53704;52.532;6.426;2022-08-21T14:07:26;7.63;;;2.63;;
63005;SDS011;53704;52.532;6.426;2022-08-21T14:09:56;8.55;;;3.30;;
63005;SDS011;53704;52.532;6.426;2022-08-21T14:12:36;18.50;;;3.97;;
63005;SDS011;53704;52.532;6.426;2022-08-21T14:15:08;10.75;;;3.45;;
63005;SDS011;53704;52.532;6.426;2022-08-21T14:17:37;20.95;;;3.35;;
63005;SDS011;53704;52.532;6.426;2022-08-21T14:20:06;15.35;;;2.95;;
63005;SDS011;53704;52.532;6.426;2022-08-21T14:22:42;15.70;;;3.17;;
63005;SDS011;53704;52.532;6.426;2022-08-21T14:32:58;12.38;;;3.05;;
63005;SDS011;53704;52.532;6.426;2022-08-21T14:35:24;12.75;;;3.33;;
63005;SDS011;53704;52.532;6.426;2022-08-21T14:37:50;13.40;;;3.15;;
63005;SDS011;53704;52.532;6.426;2022-08-21T14:40:16;9.60;;;3.13;;
63005;SDS011;53704;52.532;6.426;2022-08-21T14:42:43;12.10;;;3.70;;
63005;SDS011;53704;52.532;6.426;2022-08-21T14:45:20;6.32;;;2.75;;
63005;SDS011;53704;52.532;6.426;2022-08-21T14:47:55;11.95;;;3.63;;
63005;SDS011;53704;52.532;6.426;2022-08-21T14:50:22;8.63;;;3.17;;
63005;SDS011;53704;52.532;6.426;2022-08-21T14:52:48;8.00;;;2.88;;
63005;SDS011;53704;52.532;6.426;2022-08-21T14:55:15;15.60;;;3.55;;
63005;SDS011;53704;52.532;6.426;2022-08-21T14:57:42;9.38;;;3.28;;
63005;SDS011;53704;52.532;6.426;2022-08-21T15:00:13;11.30;;;3.83;;
63005;SDS011;53704;52.532;6.426;2022-08-21T15:02:41;9.02;;;4.03;;
63005;SDS011;53704;52.532;6.426;2022-08-21T15:05:08;12.57;;;3.55;;
63005;SDS011;53704;52.532;6.426;2022-08-21T15:07:33;13.05;;;3.58;;
63005;SDS011;53704;52.532;6.426;2022-08-21T15:09:59;8.98;;;3.47;;
63005;SDS011;53704;52.532;6.426;2022-08-21T15:12:24;9.90;;;3.70;;
63005;SDS011;53704;52.532;6.426;2022-08-21T15:14:50;13.05;;;3.65;;
63005;SDS011;53704;52.532;6.426;2022-08-21T15:17:15;7.93;;;3.75;;
63005;SDS011;53704;52.532;6.426;2022-08-21T15:19:41;9.90;;;3.17;;
63005;SDS011;53704;52.532;6.426;2022-08-21T15:22:06;7.57;;;2.90;;
63005;SDS011;53704;52.532;6.426;2022-08-21T15:24:32;12.13;;;2.78;;
63005;SDS011;53704;52.532;6.426;2022-08-21T15:26:59;10.75;;;2.88;;
63005;SDS011;53704;52.532;6.426;2022-08-21T15:29:26;6.20;;;2.63;;
63005;SDS011;53704;52.532;6.426;2022-08-21T15:31:55;6.85;;;2.83;;
63005;SDS011;53704;52.532;6.426;2022-08-21T15:34:41;8.32;;;2.70;;
63005;SDS011;53704;52.532;6.426;2022-08-21T15:37:06;7.60;;;2.95;;
63005;SDS011;53704;52.532;6.426;2022-08-21T15:39:33;7.60;;;3.20;;
63005;SDS011;53704;52.532;6.426;2022-08-21T15:42:00;11.00;;;4.05;;
63005;SDS011;53704;52.532;6.426;2022-08-21T15:44:27;7.50;;;3.10;;
63005;SDS011;53704;52.532;6.426;2022-08-21T15:46:53;8.32;;;2.97;;
63005;SDS011;53704;52.532;6.426;2022-08-21T15:49:19;5.93;;;2.78;;
63005;SDS011;53704;52.532;6.426;2022-08-21T15:51:45;9.38;;;2.90;;
63005;SDS011;53704;52.532;6.426;2022-08-21T15:54:10;8.88;;;2.22;;
63005;SDS011;53704;52.532;6.426;2022-08-21T15:56:37;8.75;;;2.72;;
63005;SDS011;53704;52.532;6.426;2022-08-21T15:59:07;7.93;;;2.53;;
63005;SDS011;53704;52.532;6.426;2022-08-21T16:01:37;10.70;;;3.00;;